aviador You're here:

UMMS Decoded Metar

MINSK 2 in BELARUS
Report Time2018-01-17 18:00:00
UTC Time2018-01-17 18:17:51
Flight Rules ifr IFR
Wind150° at 10 kt
W.Decomp.*RWY 13: 9.8 kt HW 2.1 kt RCW
W.Rank150° ranks 11
Current wind is above 150° avg. (6.3)
Visibility8000 m
Phenomena:Light Shower Snow
Clouds:Broken CB 006 Hf
Expected CloudBase > 400 ft AGL from Temp-Dew spread
Ceiling600 ft
Temp-3°C (ISA -17)
Dew Point-4°C (93% RH)
AAT-9.1°C
QNH0992 hPa
Density Alt-584 ft
Elevation673 ft
Report Wrong Elevation
Raw Report
UMMS 171800Z 15005MPS 8000 -SHSN BKN006CB M03/M04 Q0992 R13/450935
NOSIG RMK QBB190=

Extra information for UMMS:More info

Metar Taf Metar & Taf Last 4 Metars F.Rules Stats Wind Profile Meteogram Temp Stats Airport Information Weather charts Add Link Nearby VenuesMetar ALERT Operation Metar Decoded Social comments